• Join FlightAware (Why Join?)
  • Login
  • US Flag 
06:37AM EST


 

Airport Tracker/Info


-or-


 

Live Flight TrackerFlight Track Log ✈ FRG3390 ✈ 14-Jun-2013 ✈ MMTO / TLC - KLRD

Flight Track Log - Related Links

Times and Time Zones

All times are in EDT time to prevent confusion due to time zone crossing. See the FRG3390 flight status page for this flight to view local times or setup timezone preferences in your user account.

Time Position Orientation Groundspeed Altitude Reporting Facility
EDT Latitude Longitude Course Direction KTS MPH feet Rate Location/Type
05:07AM 26.5322 -100.2264 326° Northwest 239 275 16,800  Level Houston Center
05:08AM 26.5875 -100.1875 32° Northeast 236 272 16,800  Level Houston Center
05:09AM 26.6422 -100.1478 33° Northeast 235 270 16,800 -120 Level Houston Center
05:10AM 27.5442 -99.4616 North  Level Estimated
05:10AM 26.6978 -100.1081 33° Northeast 236 272 16,600  Level Houston Center
05:11AM 27.5442 -99.4616 326° Northwest  Level Estimated
05:11AM 26.7578 -100.0642 33° Northeast 245 282 15,600  Level Houston Center
05:12AM 27.5442 -99.4616 326° Northwest  Level Estimated
05:12AM 26.8200 -100.0169 34° Northeast 258 297 14,600  Level Houston Center
05:13AM 26.8844 -99.9719 32° Northeast 266 306 13,700 -900 Descending Houston Center
05:14AM 26.9478 -99.9256 33° Northeast 269 310 12,800 -900 Descending Houston Center
05:15AM 27.0117 -99.8808 32° Northeast 270 311 12,000 -960 Descending Houston Center
05:16AM 27.0744 -99.8358 33° Northeast 269 310 10,900 -1,200 Descending Houston Center
05:17AM 27.1344 -99.7872 36° Northeast 268 308 9,600 -1,260 Descending Houston Center
05:18AM 27.2006 -99.7403 32° Northeast 273 314 8,400 -1,200 Descending Houston Center
05:19AM 27.2650 -99.6944 32° Northeast 274 315 7,300 -1,200 Descending Houston Center
05:20AM 27.3272 -99.6486 33° Northeast 271 312 6,000 -1,440 Descending Houston Center
05:21AM 27.3867 -99.6056 33° Northeast 263 303 4,500 -1,380 Descending Houston Center
05:22AM 27.4489 -99.5653 30° Northeast 264 304 3,300 -780 Descending Houston Center
05:23AM 27.5181 -99.5547 North 257 296 3,000 -180 Descending Houston Center
05:24AM 27.5831 -99.5469 North 240 276 3,000  Level Houston Center
05:25AM 27.6478 -99.5481 359° North 234 269 3,000 -240 Level Houston Center
05:26AM 27.7058 -99.5433 North 224 258 2,600 -240 Descending Houston Center
05:27AM 27.6967 -99.4936 102° East 178 205 2,600  Level Houston Center
05:28AM 27.6658 -99.4653 141° Southeast 160 184 2,600 -360 Level Houston Center
05:29AM 27.6253 -99.4592 172° South 151 174 1,900 -720 Descending Houston Center
05:30AM 27.5844 -99.4611 182° South 149 171 1,200 -720 Descending Houston Center
05:31AM 27.5481 -99.4631 183° South 143 165 500 -720 Descending Houston Center